createdAt,value
2023-01-10T00:01:53.483Z,36.40
2023-01-10T00:04:20.391Z,36.40
2023-01-10T00:06:47.181Z,36.40
2023-01-10T00:09:14.024Z,36.40
2023-01-10T00:11:59.682Z,36.40
2023-01-10T00:14:29.904Z,36.40
2023-01-10T00:16:57.295Z,36.40
2023-01-10T00:19:24.174Z,36.40
2023-01-10T00:21:50.959Z,36.40
2023-01-10T00:24:21.687Z,36.40
2023-01-10T00:26:54.197Z,36.40
2023-01-10T00:29:24.070Z,36.50
2023-01-10T00:31:50.876Z,36.40
2023-01-10T00:34:17.758Z,36.50
2023-01-10T00:36:45.680Z,36.50
2023-01-10T00:39:12.537Z,36.50
2023-01-10T00:42:15.787Z,36.50
2023-01-10T00:44:42.708Z,36.50
2023-01-10T00:47:09.448Z,36.50
2023-01-10T00:49:36.258Z,36.50
2023-01-10T00:52:03.119Z,36.40
2023-01-10T00:54:29.875Z,36.40
2023-01-10T00:56:56.902Z,36.40
2023-01-10T00:59:24.249Z,36.40
2023-01-10T01:01:52.208Z,36.40
2023-01-10T01:04:19.153Z,36.40
2023-01-10T01:06:47.674Z,36.30
2023-01-10T01:09:14.881Z,36.40
2023-01-10T01:11:41.690Z,36.40
2023-01-10T01:14:09.101Z,36.30
2023-01-10T01:16:35.874Z,36.40
2023-01-10T01:19:02.700Z,36.30
2023-01-10T01:21:29.543Z,36.30
2023-01-10T01:23:59.536Z,36.20
2023-01-10T01:26:26.750Z,36.30
2023-01-10T01:28:53.577Z,36.20
2023-01-10T01:31:20.406Z,36.20
2023-01-10T01:33:48.382Z,36.20
2023-01-10T01:36:15.182Z,36.20
2023-01-10T01:38:42.368Z,36.10
2023-01-10T01:41:29.611Z,36.20
2023-01-10T01:44:35.701Z,36.20
2023-01-10T01:47:20.525Z,36.10
2023-01-10T01:49:47.909Z,36.10
2023-01-10T01:52:26.979Z,36.10
2023-01-10T01:54:57.985Z,36.10
2023-01-10T01:57:27.176Z,36.10
2023-01-10T01:59:55.444Z,36.10
2023-01-10T02:02:32.050Z,36.10
2023-01-10T02:05:09.357Z,36.00
2023-01-10T02:07:38.809Z,36.10
2023-01-10T02:10:11.115Z,36.00
2023-01-10T02:12:39.581Z,36.10
2023-01-10T02:15:08.319Z,36.80
2023-01-10T02:17:35.069Z,36.00
2023-01-10T02:20:11.365Z,36.10
2023-01-10T02:23:14.941Z,36.10
2023-01-10T02:26:04.192Z,36.10
2023-01-10T02:28:56.702Z,36.00
2023-01-10T02:31:50.986Z,36.10
2023-01-10T02:34:29.632Z,36.10
2023-01-10T02:37:31.712Z,36.10
2023-01-10T02:40:21.099Z,36.20
2023-01-10T02:43:03.119Z,36.10
2023-01-10T02:45:36.730Z,36.10
2023-01-10T02:48:03.756Z,36.10
2023-01-10T02:50:43.042Z,36.00
2023-01-10T02:53:30.091Z,36.00
2023-01-10T02:56:22.512Z,35.90
2023-01-10T02:59:23.123Z,35.80
2023-01-10T03:02:27.207Z,35.80
2023-01-10T03:05:22.363Z,35.80
2023-01-10T03:08:07.865Z,35.70
2023-01-10T03:10:51.901Z,35.70
2023-01-10T03:13:43.455Z,35.70
2023-01-10T03:16:15.624Z,35.70
2023-01-10T03:18:56.492Z,35.70
2023-01-10T03:21:24.621Z,35.80
2023-01-10T03:23:56.653Z,35.80
2023-01-10T03:26:53.822Z,35.80
2023-01-10T03:29:33.958Z,35.80
2023-01-10T03:32:05.964Z,35.80
2023-01-10T03:34:33.620Z,35.80
2023-01-10T03:37:14.007Z,36.00
2023-01-10T03:39:57.321Z,35.80
2023-01-10T03:42:57.893Z,35.70
2023-01-10T03:45:35.527Z,35.80
2023-01-10T03:48:04.562Z,35.70
2023-01-10T03:50:32.719Z,35.70
2023-01-10T03:53:00.207Z,35.80
2023-01-10T03:55:28.869Z,35.70
2023-01-10T03:57:55.706Z,35.80
2023-01-10T04:00:22.667Z,35.90
2023-01-10T04:02:49.693Z,35.90
2023-01-10T04:05:16.515Z,36.00
2023-01-10T04:07:43.291Z,36.00
2023-01-10T04:10:10.677Z,36.00
2023-01-10T04:12:37.453Z,36.00
2023-01-10T04:15:04.803Z,36.00
2023-01-10T04:17:31.641Z,36.00
2023-01-10T04:19:58.412Z,36.10
2023-01-10T04:22:25.285Z,36.10
2023-01-10T04:24:52.203Z,36.20
2023-01-10T04:27:19.317Z,36.10
2023-01-10T04:29:46.625Z,36.20
2023-01-10T04:32:13.475Z,36.20
2023-01-10T04:34:40.353Z,36.20
2023-01-10T04:37:07.196Z,36.20
2023-01-10T04:39:34.195Z,36.20
2023-01-10T04:42:01.009Z,36.20
2023-01-10T04:44:27.758Z,36.20
2023-01-10T04:46:54.896Z,37.00
2023-01-10T04:49:22.011Z,36.30
2023-01-10T04:51:48.819Z,36.30
2023-01-10T04:54:19.277Z,36.40
2023-01-10T04:56:46.061Z,36.40
2023-01-10T04:59:12.801Z,36.50
2023-01-10T05:01:39.654Z,36.50
2023-01-10T05:04:07.405Z,36.40
2023-01-10T05:06:34.294Z,36.50
2023-01-10T05:09:01.375Z,36.40
2023-01-10T05:11:28.211Z,36.40
2023-01-10T05:13:55.038Z,36.30
2023-01-10T05:16:22.124Z,36.30
2023-01-10T05:18:49.027Z,36.30
2023-01-10T05:21:15.875Z,36.30
2023-01-10T05:23:43.307Z,36.30
2023-01-10T05:26:13.535Z,36.30
2023-01-10T05:28:41.581Z,36.40
2023-01-10T05:31:11.259Z,36.40
2023-01-10T05:33:39.072Z,36.50
2023-01-10T05:36:07.195Z,36.50
2023-01-10T05:38:34.414Z,36.50
2023-01-10T05:41:01.755Z,36.60
2023-01-10T05:43:29.385Z,36.50
2023-01-10T05:45:56.209Z,36.60
2023-01-10T05:48:23.731Z,36.50
2023-01-10T05:50:52.698Z,36.50
2023-01-10T05:53:20.011Z,36.60
2023-01-10T05:55:57.121Z,36.50
2023-01-10T05:58:24.816Z,36.40
2023-01-10T06:00:51.908Z,36.40
2023-01-10T06:03:19.114Z,36.30
2023-01-10T06:05:48.660Z,36.20
2023-01-10T06:08:16.375Z,36.20
2023-01-10T06:10:43.566Z,36.30
2023-01-10T06:13:12.060Z,36.30
2023-01-10T06:15:39.303Z,36.20
2023-01-10T06:18:07.146Z,36.30
2023-01-10T06:20:34.017Z,36.30
2023-01-10T06:23:04.536Z,36.30
2023-01-10T06:25:32.541Z,36.40
2023-01-10T06:27:59.356Z,36.30
2023-01-10T06:30:26.127Z,37.00
2023-01-10T06:32:52.931Z,36.40
2023-01-10T06:35:19.692Z,36.40
2023-01-10T06:37:46.849Z,36.50
2023-01-10T06:40:13.727Z,36.40
2023-01-10T06:42:41.399Z,36.40
2023-01-10T06:45:08.828Z,36.40
2023-01-10T06:47:35.726Z,36.30
2023-01-10T06:50:02.521Z,36.30
2023-01-10T06:52:30.090Z,36.30
2023-01-10T06:54:57.149Z,36.30
2023-01-10T06:57:23.948Z,36.20
2023-01-10T06:59:50.765Z,36.00
2023-01-10T07:02:17.734Z,36.00
2023-01-10T07:04:44.510Z,36.00
2023-01-10T07:07:11.491Z,36.00
2023-01-10T07:09:38.298Z,36.00
2023-01-10T07:12:05.322Z,35.90
2023-01-10T07:14:32.385Z,35.90
2023-01-10T07:16:59.199Z,35.90
2023-01-10T07:19:26.012Z,35.90
2023-01-10T07:21:53.531Z,36.00
2023-01-10T07:24:20.331Z,36.70
2023-01-10T07:26:47.096Z,35.90
2023-01-10T07:29:13.883Z,35.90
2023-01-10T07:31:40.770Z,35.90
2023-01-10T07:34:07.715Z,35.80
2023-01-10T07:36:38.475Z,35.80
2023-01-10T07:39:06.345Z,35.80
2023-01-10T07:41:33.113Z,35.70
2023-01-10T07:43:59.934Z,35.70
2023-01-10T07:46:26.832Z,35.60
2023-01-10T07:48:53.692Z,35.60
2023-01-10T07:51:20.542Z,35.60
2023-01-10T07:53:47.438Z,35.60
2023-01-10T07:56:14.275Z,35.60
2023-01-10T07:58:41.688Z,35.60
2023-01-10T08:01:08.532Z,35.60
2023-01-10T08:03:35.806Z,35.70
2023-01-10T08:06:05.422Z,35.80
2023-01-10T08:08:34.483Z,35.80
2023-01-10T08:11:02.667Z,36.00
2023-01-10T08:13:30.202Z,36.00
2023-01-10T08:15:57.403Z,36.10
2023-01-10T08:18:25.378Z,36.20
2023-01-10T08:20:53.401Z,37.10
2023-01-10T08:23:20.849Z,36.50
2023-01-10T08:25:48.199Z,36.60
2023-01-10T08:28:15.218Z,36.60
2023-01-10T08:30:42.272Z,36.60
2023-01-10T08:33:10.481Z,36.60
2023-01-10T08:35:42.122Z,36.60
2023-01-10T08:38:10.614Z,36.60
2023-01-10T08:40:37.815Z,36.60
2023-01-10T08:43:08.215Z,36.60
2023-01-10T08:45:35.471Z,36.70
2023-01-10T08:48:02.404Z,36.70
2023-01-10T08:50:30.119Z,36.90
2023-01-10T08:53:00.989Z,37.00
2023-01-10T08:55:29.009Z,37.10
2023-01-10T08:57:55.784Z,37.10
2023-01-10T09:00:23.099Z,37.20
2023-01-10T09:02:49.980Z,37.10
2023-01-10T09:05:32.248Z,37.10
2023-01-10T09:08:01.026Z,37.10
2023-01-10T09:10:31.013Z,37.10
2023-01-10T09:13:01.360Z,37.20
2023-01-10T09:15:33.717Z,37.10
2023-01-10T09:18:04.894Z,37.10
2023-01-10T09:20:32.813Z,37.00
2023-01-10T09:23:04.140Z,37.00
2023-01-10T09:25:30.941Z,37.00
2023-01-10T09:28:02.099Z,36.90
2023-01-10T09:30:29.921Z,37.00
2023-01-10T09:32:58.072Z,37.00
2023-01-10T09:35:26.606Z,37.10
2023-01-10T09:37:58.363Z,37.20
2023-01-10T09:40:37.380Z,37.30
2023-01-10T09:43:13.065Z,37.30
2023-01-10T09:45:51.723Z,37.30
2023-01-10T09:48:36.603Z,37.30
2023-01-10T09:51:34.710Z,38.00
2023-01-10T09:54:12.538Z,37.30
2023-01-10T09:56:40.740Z,37.10
2023-01-10T09:59:22.857Z,37.00
2023-01-10T10:01:59.077Z,37.00
2023-01-10T10:04:28.450Z,36.80
2023-01-10T10:06:55.554Z,36.70
2023-01-10T10:09:28.619Z,36.60
2023-01-10T10:12:34.877Z,36.50
2023-01-10T10:15:13.364Z,36.40
2023-01-10T10:18:03.753Z,36.30
2023-01-10T10:20:57.529Z,36.40
2023-01-10T10:23:36.557Z,36.30
2023-01-10T10:26:17.831Z,36.30
2023-01-10T10:29:10.562Z,36.30
2023-01-10T10:31:57.640Z,36.90
2023-01-10T10:34:37.389Z,36.00
2023-01-10T10:37:17.973Z,36.00
2023-01-10T10:39:52.612Z,35.90
2023-01-10T10:42:20.077Z,35.90
2023-01-10T10:44:55.171Z,35.70
2023-01-10T10:47:24.103Z,35.70
2023-01-10T10:50:05.979Z,35.60
2023-01-10T10:52:36.123Z,35.60
2023-01-10T10:55:06.779Z,35.70
2023-01-10T10:57:38.736Z,35.70
2023-01-10T11:00:13.947Z,35.70
2023-01-10T11:02:48.078Z,35.70
2023-01-10T11:05:21.453Z,35.70
2023-01-10T11:07:49.777Z,35.60
2023-01-10T11:10:36.420Z,35.60
2023-01-10T11:13:12.317Z,35.60
2023-01-10T11:15:42.677Z,35.50
2023-01-10T11:18:25.377Z,35.50
2023-01-10T11:21:00.292Z,35.50
2023-01-10T11:23:55.704Z,35.50
2023-01-10T11:26:34.586Z,35.50
2023-01-10T11:29:07.674Z,35.50
2023-01-10T11:31:37.052Z,35.60
2023-01-10T11:34:08.361Z,35.60
2023-01-10T11:37:00.233Z,35.60
2023-01-10T11:39:28.475Z,35.70
2023-01-10T11:41:56.065Z,35.60
2023-01-10T11:44:28.317Z,35.70
2023-01-10T11:47:05.531Z,35.50
2023-01-10T11:49:40.030Z,35.50
2023-01-10T11:52:20.731Z,35.40
2023-01-10T11:54:48.206Z,35.40
2023-01-10T11:57:21.821Z,35.40
2023-01-10T12:00:08.103Z,35.40
2023-01-10T12:02:39.836Z,35.50
2023-01-10T12:05:09.977Z,35.60
2023-01-10T12:07:58.599Z,35.50
2023-01-10T12:10:28.628Z,35.50
2023-01-10T12:12:59.199Z,35.80
2023-01-10T12:15:30.076Z,35.60
2023-01-10T12:17:59.846Z,35.70
2023-01-10T12:20:31.215Z,35.70
2023-01-10T12:23:07.922Z,35.70
2023-01-10T12:25:37.525Z,35.60
2023-01-10T12:28:04.725Z,35.60
2023-01-10T12:30:43.619Z,35.60
2023-01-10T12:33:21.411Z,35.50
2023-01-10T12:35:58.975Z,35.40
2023-01-10T12:39:05.160Z,35.30
2023-01-10T12:41:53.047Z,35.30
2023-01-10T12:44:24.714Z,35.20
2023-01-10T12:47:23.641Z,35.10
2023-01-10T12:50:17.002Z,35.10
2023-01-10T12:52:53.791Z,35.00
2023-01-10T12:55:23.622Z,35.00
2023-01-10T12:58:00.176Z,34.90
2023-01-10T13:00:32.812Z,34.90
2023-01-10T13:03:06.095Z,34.90
2023-01-10T13:05:33.068Z,34.90
2023-01-10T13:08:04.147Z,34.80
2023-01-10T13:10:31.913Z,34.90
2023-01-10T13:13:15.086Z,34.90
2023-01-10T13:15:48.053Z,34.90
2023-01-10T13:18:30.283Z,34.90
2023-01-10T13:21:13.621Z,35.00
2023-01-10T13:23:49.943Z,35.00
2023-01-10T13:26:16.968Z,35.00
2023-01-10T13:29:17.583Z,34.90
2023-01-10T13:31:44.766Z,34.90
2023-01-10T13:34:16.489Z,34.80
2023-01-10T13:36:51.243Z,34.80
2023-01-10T13:39:37.070Z,34.90
2023-01-10T13:42:22.622Z,34.70
2023-01-10T13:45:01.836Z,34.60
2023-01-10T13:47:44.526Z,34.50
2023-01-10T13:50:23.414Z,34.40
2023-01-10T13:52:51.209Z,34.30
2023-01-10T13:55:32.747Z,34.30
2023-01-10T13:58:01.531Z,34.20
2023-01-10T14:00:53.304Z,34.10
2023-01-10T14:03:42.407Z,34.10
2023-01-10T14:06:29.581Z,34.00
2023-01-10T14:09:02.014Z,33.90
2023-01-10T14:11:46.013Z,33.90
2023-01-10T14:14:31.202Z,33.90
2023-01-10T14:17:10.172Z,33.90
2023-01-10T14:19:37.756Z,33.80
2023-01-10T14:22:04.687Z,33.90
2023-01-10T14:24:59.091Z,33.80
2023-01-10T14:27:34.491Z,33.90
2023-01-10T14:30:02.908Z,33.80
2023-01-10T14:32:37.738Z,33.80
2023-01-10T14:35:16.771Z,33.70
2023-01-10T14:37:53.087Z,33.60
2023-01-10T14:40:28.448Z,33.50
2023-01-10T14:42:58.582Z,33.50
2023-01-10T14:45:33.899Z,33.30
2023-01-10T14:48:17.333Z,33.20
2023-01-10T14:50:44.398Z,33.10
2023-01-10T14:53:27.409Z,33.00
2023-01-10T14:55:54.254Z,33.00
2023-01-10T14:58:22.739Z,33.00
2023-01-10T15:00:51.248Z,33.10
2023-01-10T15:03:20.558Z,33.10
2023-01-10T15:05:57.408Z,33.00
2023-01-10T15:08:25.628Z,33.10
2023-01-10T15:10:57.742Z,33.10
2023-01-10T15:13:28.306Z,33.10
2023-01-10T15:15:56.426Z,33.00
2023-01-10T15:18:38.723Z,33.00
2023-01-10T15:21:06.539Z,33.00
2023-01-10T15:23:39.106Z,33.00
2023-01-10T15:26:14.964Z,33.00
2023-01-10T15:28:42.871Z,33.00
2023-01-10T15:31:11.441Z,33.00
2023-01-10T15:33:42.673Z,33.00
2023-01-10T15:36:17.632Z,33.00
2023-01-10T15:38:46.788Z,33.00
2023-01-10T15:41:20.494Z,32.90
2023-01-10T15:43:50.033Z,32.90
2023-01-10T15:46:26.603Z,32.90
2023-01-10T15:49:04.415Z,32.90
2023-01-10T15:51:37.497Z,32.90
2023-01-10T15:54:19.684Z,32.80
2023-01-10T15:57:06.583Z,32.80
2023-01-10T15:59:46.126Z,32.80
2023-01-10T16:02:16.707Z,32.80
2023-01-10T16:04:44.992Z,32.70
2023-01-10T16:07:27.647Z,32.80
2023-01-10T16:10:07.877Z,32.80
2023-01-10T16:12:59.091Z,32.80
2023-01-10T16:15:28.985Z,32.80
2023-01-10T16:17:56.593Z,32.70
2023-01-10T16:20:31.741Z,32.70
2023-01-10T16:22:59.031Z,32.70
2023-01-10T16:25:32.957Z,32.70
2023-01-10T16:28:00.215Z,32.70
2023-01-10T16:30:32.548Z,32.70
2023-01-10T16:33:08.818Z,32.70
2023-01-10T16:35:35.711Z,32.60
2023-01-10T16:38:03.755Z,32.60
2023-01-10T16:40:37.377Z,32.50
2023-01-10T16:43:21.288Z,32.50
2023-01-10T16:45:50.607Z,32.50
2023-01-10T16:48:19.364Z,32.40
2023-01-10T16:50:47.527Z,32.40
2023-01-10T16:53:17.059Z,32.40
2023-01-10T16:55:52.539Z,32.30
2023-01-10T16:58:20.790Z,32.30
2023-01-10T17:00:50.275Z,32.30
2023-01-10T17:03:25.794Z,32.30
2023-01-10T17:05:52.627Z,32.30
2023-01-10T17:08:24.474Z,32.20
2023-01-10T17:10:56.190Z,32.10
2023-01-10T17:13:29.168Z,32.20
2023-01-10T17:15:56.153Z,32.20
2023-01-10T17:18:24.919Z,32.30
2023-01-10T17:20:52.433Z,32.30
2023-01-10T17:23:19.911Z,32.30
2023-01-10T17:25:49.616Z,32.40
2023-01-10T17:28:19.309Z,32.50
2023-01-10T17:30:46.227Z,32.50
2023-01-10T17:33:13.100Z,32.60
2023-01-10T17:35:44.551Z,32.60
2023-01-10T17:38:14.472Z,32.60
2023-01-10T17:40:47.446Z,32.60
2023-01-10T17:43:15.785Z,32.60
2023-01-10T17:45:44.991Z,32.50
2023-01-10T17:48:15.924Z,32.50
2023-01-10T17:50:57.624Z,32.50
2023-01-10T17:53:24.957Z,32.50
2023-01-10T17:55:52.510Z,32.40
2023-01-10T17:58:20.360Z,32.50
2023-01-10T18:00:48.745Z,32.40
2023-01-10T18:03:16.442Z,32.30
2023-01-10T18:05:54.613Z,32.40
2023-01-10T18:08:21.995Z,32.40
2023-01-10T18:10:49.600Z,32.50
2023-01-10T18:13:18.996Z,32.60
2023-01-10T18:15:48.254Z,32.60
2023-01-10T18:18:16.688Z,32.60
2023-01-10T18:20:44.976Z,32.60
2023-01-10T18:23:22.589Z,32.60
2023-01-10T18:25:56.726Z,32.50
2023-01-10T18:28:39.519Z,32.50
2023-01-10T18:31:16.533Z,32.40
2023-01-10T18:33:44.437Z,32.30
2023-01-10T18:36:18.160Z,32.30
2023-01-10T18:38:48.264Z,32.30
2023-01-10T18:41:16.164Z,32.10
2023-01-10T18:43:42.936Z,32.00
2023-01-10T18:46:13.160Z,32.00
2023-01-10T18:48:40.154Z,32.00
2023-01-10T18:51:08.827Z,32.00
2023-01-10T18:53:35.721Z,32.00
2023-01-10T18:56:04.810Z,32.00
2023-01-10T18:58:35.237Z,32.00
2023-01-10T19:01:09.602Z,31.90
2023-01-10T19:03:36.864Z,31.90
2023-01-10T19:06:05.880Z,31.80
2023-01-10T19:08:32.951Z,31.80
2023-01-10T19:11:12.864Z,31.70
2023-01-10T19:13:41.099Z,31.70
2023-01-10T19:16:18.150Z,31.60
2023-01-10T19:18:49.572Z,31.60
2023-01-10T19:21:16.435Z,31.60
2023-01-10T19:23:48.984Z,31.60
2023-01-10T19:26:16.190Z,31.60
2023-01-10T19:28:44.323Z,31.60
2023-01-10T19:31:18.914Z,31.70
2023-01-10T19:33:47.642Z,31.70
2023-01-10T19:36:15.739Z,32.50
2023-01-10T19:38:42.982Z,31.80
2023-01-10T19:41:10.440Z,31.80
2023-01-10T19:43:37.282Z,31.80
2023-01-10T19:46:08.273Z,31.80
2023-01-10T19:48:38.460Z,31.70
2023-01-10T19:51:07.418Z,31.70
2023-01-10T19:53:40.512Z,31.50
2023-01-10T19:56:09.858Z,31.40
2023-01-10T19:58:38.299Z,31.40
2023-01-10T20:01:09.975Z,31.40
2023-01-10T20:03:37.948Z,31.30
2023-01-10T20:06:06.161Z,31.30
2023-01-10T20:08:32.951Z,31.30
2023-01-10T20:11:06.797Z,31.30
2023-01-10T20:13:36.179Z,31.30
2023-01-10T20:16:06.712Z,31.20
2023-01-10T20:18:33.541Z,31.20
2023-01-10T20:21:07.871Z,31.20
2023-01-10T20:23:36.229Z,31.10
2023-01-10T20:26:06.802Z,31.10
2023-01-10T20:28:34.202Z,31.10
2023-01-10T20:31:01.588Z,31.10
2023-01-10T20:33:29.049Z,31.10
2023-01-10T20:36:01.437Z,31.10
2023-01-10T20:38:28.953Z,31.10
2023-01-10T20:40:59.844Z,31.10
2023-01-10T20:43:27.352Z,31.10
2023-01-10T20:45:54.777Z,31.00
2023-01-10T20:48:22.006Z,31.10
2023-01-10T20:50:49.640Z,31.10
2023-01-10T20:53:16.465Z,31.10
2023-01-10T20:55:46.829Z,31.20
2023-01-10T20:58:17.617Z,31.10
2023-01-10T21:00:44.587Z,31.10
2023-01-10T21:03:11.478Z,31.20
2023-01-10T21:05:38.860Z,31.10
2023-01-10T21:08:05.629Z,31.00
2023-01-10T21:10:32.411Z,31.00
2023-01-10T21:12:59.408Z,30.90
2023-01-10T21:15:26.231Z,30.90
2023-01-10T21:17:53.144Z,30.90
2023-01-10T21:20:20.388Z,31.00
2023-01-10T21:22:47.265Z,31.00
2023-01-10T21:25:14.258Z,31.10
2023-01-10T21:27:41.056Z,31.10
2023-01-10T21:30:09.155Z,31.20
2023-01-10T21:32:35.968Z,31.20
2023-01-10T21:35:02.862Z,31.30
2023-01-10T21:37:29.811Z,31.40
2023-01-10T21:39:56.884Z,31.50
2023-01-10T21:42:37.930Z,31.40
2023-01-10T21:45:06.963Z,31.30
2023-01-10T21:47:35.819Z,31.30
2023-01-10T21:50:03.736Z,31.20
2023-01-10T21:52:30.800Z,31.20
2023-01-10T21:54:57.872Z,31.10
2023-01-10T21:57:25.659Z,31.20
2023-01-10T21:59:53.359Z,31.20
2023-01-10T22:02:22.020Z,31.20
2023-01-10T22:04:50.833Z,31.10
2023-01-10T22:07:21.582Z,31.10
2023-01-10T22:09:50.628Z,31.00
2023-01-10T22:12:18.841Z,31.00
2023-01-10T22:14:46.187Z,30.90
2023-01-10T22:17:13.877Z,30.80
2023-01-10T22:19:41.113Z,30.80
2023-01-10T22:22:08.723Z,30.70
2023-01-10T22:24:35.735Z,30.60
2023-01-10T22:27:03.047Z,30.60
2023-01-10T22:29:29.903Z,30.60
2023-01-10T22:31:57.301Z,30.60
2023-01-10T22:34:24.143Z,30.60
2023-01-10T22:36:50.937Z,30.70
2023-01-10T22:39:17.797Z,30.70
2023-01-10T22:41:44.597Z,30.80
2023-01-10T22:44:23.276Z,30.70
2023-01-10T22:46:51.689Z,30.80
2023-01-10T22:49:18.630Z,30.80
2023-01-10T22:51:45.475Z,30.90
2023-01-10T22:54:15.271Z,31.00
2023-01-10T22:56:43.129Z,31.10
2023-01-10T22:59:09.976Z,31.20
2023-01-10T23:01:36.890Z,31.30
2023-01-10T23:04:04.142Z,31.30
2023-01-10T23:06:31.179Z,31.30
2023-01-10T23:08:58.225Z,31.30
2023-01-10T23:11:25.197Z,31.30
2023-01-10T23:13:51.984Z,31.30
2023-01-10T23:16:22.353Z,31.20
2023-01-10T23:18:49.760Z,31.20
2023-01-10T23:21:17.165Z,31.20
2023-01-10T23:23:43.942Z,31.20
2023-01-10T23:26:12.665Z,31.10
2023-01-10T23:28:48.316Z,31.10
2023-01-10T23:31:19.271Z,31.00
2023-01-10T23:33:46.696Z,31.00
2023-01-10T23:36:13.683Z,31.00
2023-01-10T23:38:40.629Z,31.10
2023-01-10T23:41:07.558Z,31.10
2023-01-10T23:43:34.456Z,31.10
2023-01-10T23:46:02.290Z,31.10
2023-01-10T23:48:30.004Z,31.20
2023-01-10T23:50:57.215Z,31.20
2023-01-10T23:53:24.251Z,31.20
2023-01-10T23:55:51.344Z,31.20
2023-01-10T23:58:18.175Z,31.30
